Thursday, November 27, 2014, 1:00 PM EST

KGED, Georgetown Sussex Co Airport

Location: Georgetown, DE, United States Lat: 38.683
Local Time: 1:00 PM EST (18:00 GMT) Lon: -75.367
Time Zone: US/Eastern Elev: 52 ft

Show me the last for .
Show Decoded

2014-11-27 11:54 METAR KGED 271654Z AUTO 33007KT 10SM BKN046 OVC070 05/M01 A3004 RMK AO2 SLP171
                 T00501006 =
2014-11-27 10:54 METAR KGED 271554Z AUTO 32005KT 10SM BKN070 07/00 A3005 RMK AO2 SLP176 T00670000
                 =
2014-11-27 09:54 METAR KGED 271454Z AUTO VRB04KT 10SM FEW060 05/01 A3005 RMK AO2 SLP178 60000
                 T00500006 51007 =
2014-11-27 08:54 METAR KGED 271354Z AUTO 29003KT 10SM SCT065 BKN110 03/01 A3005 RMK AO2 SLP175
                 T00330011 =
2014-11-27 07:54 METAR KGED 271254Z AUTO 00000KT 6SM BR CLR 01/00 A3005 RMK AO2 SNB01E02 SLP175
                 P0000 T00110000 =
2014-11-27 06:54 METAR KGED 271154Z AUTO 00000KT 9SM CLR 01/00 A3003 RMK AO2 SLP170 70111
                 T00110000 10033 20011 51014 =
2014-11-27 05:54 METAR KGED 271054Z AUTO 00000KT 10SM CLR 02/00 A3002 RMK AO2 SLP166 T00170000 =
2014-11-27 04:54 METAR KGED 270954Z AUTO 25004KT 10SM CLR 02/01 A3001 RMK AO2 SLP162 T00220006 =
2014-11-27 03:54 METAR KGED 270854Z AUTO 00000KT 10SM FEW046 03/01 A2999 RMK AO2 SLP157 T00280006
                 50007 =
2014-11-27 02:54 METAR KGED 270754Z AUTO 29004KT 10SM BKN042 OVC055 03/01 A3000 RMK AO2 SLP160
                 T00330011 =
2014-11-27 01:54 METAR KGED 270654Z AUTO 26003KT 10SM FEW012 BKN050 03/01 A2999 RMK AO2 SLP156
                 T00280011 =
2014-11-27 00:54 METAR KGED 270554Z AUTO 29006KT 10SM BKN035 03/01 A2997 RMK AO2 SLP149 T00280011
                 10039 20028 50017 =
2014-11-27 00:12 METAR KGED 270512Z AUTO 29007KT 10SM SCT015 OVC080 03/01 A2997 RMK AO2 T00330011
                 =
2014-11-26 23:54 METAR KGED 270454Z AUTO 29007KT 10SM OVC013 03/01 A2997 RMK AO2 SLP150 T00330011
                 400940028 =
2014-11-26 22:54 METAR KGED 270354Z AUTO VRB06KT 10SM OVC012 03/01 A2996 RMK AO2 SLP145 T00330011
                 =
2014-11-26 21:54 METAR KGED 270254Z AUTO 30005KT 10SM OVC010 04/03 A2992 RMK AO2 SLP132 T00390028
                 53018 =
2014-11-26 21:17 METAR KGED 270217Z AUTO 33004KT 10SM OVC010 04/03 A2989 RMK AO2 CIG 008V013
                 T00390028 =
2014-11-26 20:54 METAR KGED 270154Z AUTO 34006G14KT 10SM OVC009 03/03 A2987 RMK AO2 CIG 007V012
                 SLP115 T00330028 =
2014-11-26 19:54 METAR KGED 270054Z AUTO 34010G17KT 10SM BKN012 OVC032 03/02 A2988 RMK AO2 SLP118
                 T00330017 =
2014-11-26 18:54 METAR KGED 262354Z AUTO 32010G17KT 8SM OVC010 03/02 A2987 RMK AO2
                 RAE24UPB32E54SNB2258E00 CIG 007V012 SLP114 P0000 60035 T00280017 10050 20028
                 51043 =
2014-11-26 18:46 METAR KGED 262346Z AUTO 33010G23KT 7SM UP BKN010 OVC014 03/02 A2986 RMK AO2
                 RAE24UPB32SNB2258E00 CIG 007V012 P0000 T00280017 =
2014-11-26 17:54 METAR KGED 262254Z AUTO 33010G21KT 4SM -RA BR OVC009 03/03 A2985 RMK AO2 CIG
                 005V012 SLP108 P0002 T00330028 =
2014-11-26 17:04 METAR KGED 262204Z AUTO 32008G16KT 3SM -RA BR BKN007 OVC014 04/03 A2982 RMK AO2
                 CIG 005V010 P0000 T00390033 =
2014-11-26 16:54 METAR KGED 262154Z AUTO 33010G18KT 2SM -RA BR OVC007 04/03 A2982 RMK AO2 CIG
                 005V010 SLP097 P0003 T00390033 =
2014-11-26 16:30 METAR KGED 262130Z AUTO 33009G18KT 2 1/2SM -RA BR OVC007 04/03 A2979 RMK AO2 CIG
                 006V009 P0001 T00440033 =
2014-11-26 15:54 METAR KGED 262054Z AUTO 01012G18KT 10SM -RA OVC008 04/03 A2974 RMK AO2 CIG
                 007V013 SLP072 P0004 60030 T00440033 56041 =
2014-11-26 14:54 METAR KGED 261954Z AUTO 01009G18KT 10SM -RA OVC006 04/03 A2975 RMK AO2 SLP073
                 P0011 T00440033 =
2014-11-26 14:22 METAR KGED 261922Z AUTO 36013G25KT 4SM -RA BR OVC006 04/03 A2974 RMK AO2 CIG
                 005V010 P0009 T00440033 =
2014-11-26 14:05 METAR KGED 261905Z AUTO 02017G23KT 2SM +RA BR OVC006 04/03 A2977 RMK AO2 PRESFR
                 P0005 T00440033 =
2014-11-26 13:54 METAR KGED 261854Z AUTO 36015G22KT 3SM +RA BR OVC008 05/03 A2978 RMK AO2 PK WND
                 02027/1821 CIG 005V010 SLP086 P0015 T00500033 =
2014-11-26 13:24 METAR KGED 261824Z AUTO 02018G27KT 3SM RA BR BKN009 OVC042 05/03 A2980 RMK AO2
                 PK WND 02027/1821 PRESFR P0011 T00500033 =
2014-11-26 13:11 METAR KGED 261811Z AUTO 02016G22KT 1 3/4SM +RA BR OVC007 05/03 A2983 RMK AO2 CIG
                 005V011 P0007 T00500033 =
2014-11-26 13:02 METAR KGED 261802Z AUTO 01013G21KT 4SM RA BR OVC007 05/03 A2986 RMK AO2 CIG
                 006V012 P0002 T00500033 =

Support USWX by starting your Amazon purchase here.